createdAt,value
2019-05-02T00:01:49.762Z,8.45
2019-05-02T00:04:21.243Z,8.36
2019-05-02T00:07:14.477Z,8.27
2019-05-02T00:09:48.503Z,8.26
2019-05-02T00:12:18.551Z,8.20
2019-05-02T00:14:50.986Z,8.16
2019-05-02T00:17:25.584Z,8.15
2019-05-02T00:19:54.541Z,8.11
2019-05-02T00:22:24.839Z,8.07
2019-05-02T00:24:55.094Z,8.07
2019-05-02T00:27:25.365Z,8.02
2019-05-02T00:29:58.602Z,7.98
2019-05-02T00:32:28.172Z,7.98
2019-05-02T00:34:58.809Z,7.97
2019-05-02T00:37:29.146Z,7.98
2019-05-02T00:39:59.396Z,7.93
2019-05-02T00:42:29.648Z,7.91
2019-05-02T00:44:59.844Z,7.81
2019-05-02T00:47:42.267Z,7.76
2019-05-02T00:50:13.905Z,7.73
2019-05-02T00:52:44.292Z,7.69
2019-05-02T00:55:14.752Z,7.69
2019-05-02T00:57:45.352Z,7.75
2019-05-02T01:00:18.400Z,7.71
2019-05-02T01:02:56.121Z,7.71
2019-05-02T01:05:26.403Z,7.77
2019-05-02T01:08:01.179Z,7.80
2019-05-02T01:10:28.683Z,7.77
2019-05-02T01:12:59.281Z,7.78
2019-05-02T01:15:29.549Z,7.76
2019-05-02T01:18:01.133Z,7.73
2019-05-02T01:20:31.830Z,7.69
2019-05-02T01:23:02.528Z,7.62
2019-05-02T01:25:33.934Z,7.59
2019-05-02T01:28:12.766Z,7.55
2019-05-02T01:31:00.711Z,7.52
2019-05-02T01:33:49.923Z,7.51
2019-05-02T01:36:28.631Z,7.50
2019-05-02T01:39:02.886Z,7.37
2019-05-02T01:41:32.338Z,7.35
2019-05-02T01:44:02.553Z,7.27
2019-05-02T01:46:33.158Z,7.21
2019-05-02T01:49:03.433Z,7.19
2019-05-02T01:51:36.756Z,7.16
2019-05-02T01:54:10.139Z,7.14
2019-05-02T01:56:39.038Z,7.14
2019-05-02T01:59:09.326Z,7.10
2019-05-02T02:01:39.581Z,7.13
2019-05-02T02:04:09.784Z,7.11
2019-05-02T02:06:43.274Z,7.13
2019-05-02T02:09:12.176Z,7.19
2019-05-02T02:11:42.372Z,7.30
2019-05-02T02:14:16.128Z,7.36
2019-05-02T02:19:46.686Z,7.24
2019-05-02T02:22:39.368Z,7.14
2019-05-02T02:25:32.185Z,7.01
2019-05-02T02:28:01.018Z,6.95
2019-05-02T02:30:31.390Z,6.94
2019-05-02T02:33:07.427Z,6.93
2019-05-02T02:35:34.249Z,6.96
2019-05-02T02:38:05.767Z,6.96
2019-05-02T02:40:36.177Z,6.92
2019-05-02T02:43:30.336Z,6.93
2019-05-02T02:45:51.788Z,6.90
2019-05-02T02:48:21.645Z,6.90
2019-05-02T02:50:51.982Z,7.01
2019-05-02T02:53:32.529Z,7.10
2019-05-02T02:56:04.325Z,7.16
2019-05-02T02:58:44.111Z,7.23
2019-05-02T03:01:06.672Z,7.28
2019-05-02T03:03:37.039Z,7.29
2019-05-02T03:06:08.285Z,7.30
2019-05-02T03:08:46.110Z,7.31
2019-05-02T03:11:22.378Z,7.23
2019-05-02T03:14:07.359Z,7.23
2019-05-02T03:16:45.582Z,7.20
2019-05-02T03:19:08.268Z,7.10
2019-05-02T03:21:41.089Z,7.05
2019-05-02T03:24:11.476Z,7.03
2019-05-02T03:26:41.765Z,6.92
2019-05-02T03:29:12.109Z,6.95
2019-05-02T03:31:42.493Z,6.92
2019-05-02T03:34:12.816Z,6.91
2019-05-02T03:36:43.385Z,6.89
2019-05-02T03:39:17.071Z,6.85
2019-05-02T03:41:46.014Z,6.77
2019-05-02T03:44:25.169Z,6.75
2019-05-02T03:46:54.151Z,6.72
2019-05-02T03:49:20.326Z,6.73
2019-05-02T03:51:55.800Z,6.63
2019-05-02T03:54:23.190Z,6.63
2019-05-02T03:56:54.811Z,6.57
2019-05-02T03:59:37.153Z,6.57
2019-05-02T04:01:58.955Z,6.53
2019-05-02T04:04:31.549Z,6.45
2019-05-02T04:07:03.778Z,6.46
2019-05-02T04:09:42.005Z,6.47
2019-05-02T04:12:11.811Z,6.48
2019-05-02T04:14:40.071Z,6.43
2019-05-02T04:17:11.961Z,6.40
2019-05-02T04:19:42.930Z,6.39
2019-05-02T04:22:14.158Z,6.38
2019-05-02T04:24:47.729Z,6.38
2019-05-02T04:27:18.367Z,6.42
2019-05-02T04:29:50.038Z,6.40
2019-05-02T04:32:20.366Z,6.43
2019-05-02T04:34:55.080Z,6.45
2019-05-02T04:37:23.480Z,6.49
2019-05-02T04:39:58.180Z,6.59
2019-05-02T04:42:29.086Z,6.70
2019-05-02T04:45:16.261Z,6.83
2019-05-02T04:47:30.846Z,6.92
2019-05-02T04:50:07.693Z,6.98
2019-05-02T04:52:38.494Z,7.05
2019-05-02T04:55:19.966Z,7.10
2019-05-02T04:57:46.834Z,7.19
2019-05-02T05:00:12.125Z,7.29
2019-05-02T05:02:42.716Z,7.39
2019-05-02T05:05:17.268Z,7.55
2019-05-02T05:07:46.493Z,7.64
2019-05-02T05:10:18.558Z,7.72
2019-05-02T05:12:48.978Z,7.76
2019-05-02T05:15:35.516Z,7.82
2019-05-02T05:17:51.663Z,7.92
2019-05-02T05:20:22.442Z,7.97
2019-05-02T05:22:53.160Z,7.94
2019-05-02T05:25:29.327Z,7.91
2019-05-02T05:28:05.647Z,7.91
2019-05-02T05:30:31.966Z,7.93
2019-05-02T05:33:02.255Z,7.91
2019-05-02T05:35:32.836Z,7.95
2019-05-02T05:38:03.105Z,7.97
2019-05-02T05:40:33.337Z,7.99
2019-05-02T05:43:13.642Z,8.07
2019-05-02T05:45:48.631Z,8.13
2019-05-02T05:48:08.399Z,8.21
2019-05-02T05:50:41.406Z,8.34
2019-05-02T05:53:12.496Z,8.49
2019-05-02T05:55:42.559Z,8.65
2019-05-02T05:58:15.816Z,8.81
2019-05-02T06:00:50.237Z,8.94
2019-05-02T06:03:18.063Z,9.04
2019-05-02T06:05:48.348Z,9.13
2019-05-02T06:08:19.928Z,9.26
2019-05-02T06:10:50.709Z,9.29
2019-05-02T06:13:20.944Z,9.40
2019-05-02T06:16:02.067Z,9.46
2019-05-02T06:18:23.947Z,9.47
2019-05-02T06:20:54.527Z,9.55
2019-05-02T06:23:25.202Z,9.61
2019-05-02T06:25:55.934Z,9.69
2019-05-02T06:28:26.175Z,9.80
2019-05-02T06:30:56.442Z,9.96
2019-05-02T06:33:30.551Z,10.16
2019-05-02T06:36:01.467Z,10.37
2019-05-02T06:38:30.932Z,10.60
2019-05-02T06:41:01.206Z,10.70
2019-05-02T06:43:31.409Z,10.81
2019-05-02T06:46:14.933Z,10.85
2019-05-02T06:48:34.281Z,11.02
2019-05-02T06:51:04.541Z,11.08
2019-05-02T06:53:35.242Z,11.11
2019-05-02T06:56:08.034Z,11.19
2019-05-02T06:58:42.097Z,11.24
2019-05-02T07:01:11.351Z,11.30
2019-05-02T07:03:46.150Z,11.43
2019-05-02T07:06:13.455Z,11.51
2019-05-02T07:08:43.740Z,11.64
2019-05-02T07:11:14.009Z,11.81
2019-05-02T07:13:44.609Z,12.07
2019-05-02T07:16:38.508Z,12.31
2019-05-02T07:19:27.436Z,12.62
2019-05-02T07:21:58.644Z,12.84
2019-05-02T07:24:30.872Z,13.16
2019-05-02T07:27:02.332Z,13.61
2019-05-02T07:29:33.456Z,13.94
2019-05-02T07:32:03.899Z,14.40
2019-05-02T07:34:34.505Z,14.75
2019-05-02T07:37:08.412Z,15.03
2019-05-02T07:39:40.875Z,15.25
2019-05-02T07:42:08.592Z,15.39
2019-05-02T07:44:38.906Z,15.73
2019-05-02T07:47:09.135Z,15.91
2019-05-02T07:49:39.341Z,16.13
2019-05-02T07:52:10.195Z,16.28
2019-05-02T07:54:40.547Z,16.25
2019-05-02T07:57:10.851Z,16.45
2019-05-02T07:59:41.436Z,16.57
2019-05-02T08:02:11.968Z,16.50
2019-05-02T08:04:43.594Z,16.49
2019-05-02T08:07:16.294Z,16.50
2019-05-02T08:09:46.007Z,16.70
2019-05-02T08:12:17.903Z,16.74
2019-05-02T08:14:48.266Z,16.96
2019-05-02T08:17:19.338Z,17.45
2019-05-02T08:19:50.209Z,17.78
2019-05-02T08:22:20.928Z,17.92
2019-05-02T08:24:51.126Z,18.29
2019-05-02T08:27:40.613Z,18.23
2019-05-02T08:30:19.898Z,18.53
2019-05-02T08:32:50.292Z,18.78
2019-05-02T08:35:20.587Z,18.57
2019-05-02T08:37:50.864Z,18.47
2019-05-02T08:40:21.130Z,18.59
2019-05-02T08:42:51.392Z,18.61
2019-05-02T08:45:22.096Z,18.39
2019-05-02T08:47:52.355Z,18.29
2019-05-02T08:50:27.163Z,18.61
2019-05-02T08:52:54.850Z,18.72
2019-05-02T08:55:25.551Z,18.63
2019-05-02T08:57:55.806Z,18.68
2019-05-02T09:00:26.165Z,18.75
2019-05-02T09:03:01.986Z,19.00
2019-05-02T09:05:28.890Z,18.79
2019-05-02T09:07:59.430Z,19.42
2019-05-02T09:10:29.749Z,19.83
2019-05-02T09:13:00.005Z,20.23
2019-05-02T09:15:31.760Z,20.83
2019-05-02T09:18:03.185Z,21.06
2019-05-02T09:20:33.518Z,20.88
2019-05-02T09:23:03.762Z,20.59
2019-05-02T09:25:33.952Z,20.77
2019-05-02T09:28:04.612Z,20.96
2019-05-02T09:30:35.231Z,20.91
2019-05-02T09:33:06.785Z,21.17
2019-05-02T09:35:37.813Z,21.23
2019-05-02T09:38:08.445Z,21.34
2019-05-02T09:40:38.653Z,21.40
2019-05-02T09:43:08.917Z,21.43
2019-05-02T09:45:41.182Z,21.85
2019-05-02T09:48:12.583Z,22.39
2019-05-02T09:50:42.958Z,23.00
2019-05-02T09:53:20.528Z,22.92
2019-05-02T09:55:50.204Z,23.12
2019-05-02T09:58:21.296Z,23.91
2019-05-02T10:01:07.224Z,24.11
2019-05-02T10:03:37.427Z,23.40
2019-05-02T10:06:13.959Z,23.68
2019-05-02T10:08:43.566Z,23.91
2019-05-02T10:11:17.035Z,23.10
2019-05-02T10:13:44.642Z,23.04
2019-05-02T10:16:18.089Z,23.19
2019-05-02T10:18:47.215Z,23.87
2019-05-02T10:21:17.639Z,25.34
2019-05-02T10:23:51.764Z,25.78
2019-05-02T10:26:24.171Z,25.99
2019-05-02T10:28:53.401Z,25.29
2019-05-02T10:31:27.515Z,25.41
2019-05-02T10:33:56.081Z,26.24
2019-05-02T10:36:26.676Z,27.22
2019-05-02T10:38:59.229Z,27.17
2019-05-02T10:41:31.765Z,27.54
2019-05-02T10:44:02.234Z,27.15
2019-05-02T10:46:42.902Z,27.33
2019-05-02T10:49:25.177Z,26.63
2019-05-02T10:51:56.452Z,26.39
2019-05-02T10:54:28.038Z,26.56
2019-05-02T10:56:58.855Z,27.13
2019-05-02T10:59:29.151Z,26.78
2019-05-02T11:02:17.340Z,27.24
2019-05-02T11:04:52.526Z,28.33
2019-05-02T11:07:26.381Z,28.08
2019-05-02T11:09:57.359Z,27.91
2019-05-02T11:12:44.143Z,26.62
2019-05-02T11:15:29.554Z,26.08
2019-05-02T11:18:02.307Z,24.83
2019-05-02T11:20:33.483Z,23.81
2019-05-02T11:23:03.742Z,22.43
2019-05-02T11:25:34.007Z,21.72
2019-05-02T11:28:07.064Z,20.62
2019-05-02T11:30:38.339Z,19.98
2019-05-02T11:33:08.634Z,19.46
2019-05-02T11:35:41.637Z,19.36
2019-05-02T11:38:13.290Z,19.13
2019-05-02T11:40:42.716Z,18.78
2019-05-02T11:43:13.219Z,18.35
2019-05-02T11:45:43.393Z,18.06
2019-05-02T11:48:14.078Z,17.95
2019-05-02T11:50:44.425Z,17.96
2019-05-02T11:53:23.199Z,17.67
2019-05-02T11:55:47.564Z,17.71
2019-05-02T11:58:17.807Z,17.30
2019-05-02T12:00:49.800Z,17.18
2019-05-02T12:03:28.150Z,17.30
2019-05-02T12:05:58.868Z,17.00
2019-05-02T12:08:31.916Z,16.90
2019-05-02T12:11:03.901Z,16.69
2019-05-02T12:13:35.643Z,16.44
2019-05-02T12:16:08.616Z,15.97
2019-05-02T12:18:39.012Z,15.55
2019-05-02T12:21:09.246Z,15.21
2019-05-02T12:23:41.680Z,15.10
2019-05-02T12:26:12.378Z,15.02
2019-05-02T12:28:43.681Z,14.86
2019-05-02T12:31:27.995Z,14.78
2019-05-02T12:34:00.263Z,14.80
2019-05-02T12:36:30.576Z,14.57
2019-05-02T12:39:02.480Z,14.41
2019-05-02T12:41:33.722Z,14.42
2019-05-02T12:44:04.136Z,14.66
2019-05-02T12:46:34.753Z,14.99
2019-05-02T12:49:06.525Z,14.99
2019-05-02T12:51:37.050Z,15.09
2019-05-02T12:54:07.675Z,15.23
2019-05-02T12:56:37.926Z,15.21
2019-05-02T12:59:08.213Z,15.01
2019-05-02T13:01:38.491Z,15.03
2019-05-02T13:04:12.418Z,15.19
2019-05-02T13:06:42.990Z,15.48
2019-05-02T13:09:13.991Z,15.76
2019-05-02T13:11:56.544Z,15.94
2019-05-02T13:14:31.898Z,15.88
2019-05-02T13:17:05.848Z,15.91
2019-05-02T13:19:40.052Z,15.93
2019-05-02T13:22:28.762Z,16.05
2019-05-02T13:25:05.653Z,16.26
2019-05-02T13:27:43.390Z,16.37
2019-05-02T13:30:12.436Z,16.34
2019-05-02T13:32:48.081Z,16.65
2019-05-02T13:35:24.724Z,17.65
2019-05-02T13:37:57.218Z,17.91
2019-05-02T13:40:34.265Z,18.61
2019-05-02T13:43:04.463Z,19.22
2019-05-02T13:45:59.872Z,20.58
2019-05-02T13:48:32.167Z,20.74
2019-05-02T13:51:03.950Z,20.28
2019-05-02T13:53:36.046Z,21.00
2019-05-02T13:56:24.619Z,21.67
2019-05-02T13:58:54.923Z,24.65
2019-05-02T14:01:25.255Z,24.57
2019-05-02T14:03:55.876Z,23.15
2019-05-02T14:06:29.753Z,22.26
2019-05-02T14:09:07.924Z,22.58
2019-05-02T14:11:49.428Z,21.67
2019-05-02T14:14:19.628Z,20.97
2019-05-02T14:16:50.018Z,20.08
2019-05-02T14:19:22.076Z,20.12
2019-05-02T14:21:52.325Z,20.15
2019-05-02T14:24:23.192Z,20.26
2019-05-02T14:26:53.466Z,19.96
2019-05-02T14:29:23.764Z,20.60
2019-05-02T14:31:54.017Z,20.56
2019-05-02T14:34:32.820Z,20.39
2019-05-02T14:37:03.194Z,19.30
2019-05-02T14:39:33.991Z,18.75
2019-05-02T14:42:04.184Z,18.43
2019-05-02T14:45:01.538Z,18.17
2019-05-02T14:47:10.103Z,18.17
2019-05-02T14:49:39.386Z,18.85
2019-05-02T14:52:09.940Z,22.05
2019-05-02T14:54:44.007Z,26.13
2019-05-02T14:57:17.259Z,25.13
2019-05-02T14:59:50.372Z,22.72
2019-05-02T15:02:47.207Z,21.40
2019-05-02T15:05:12.841Z,20.34
2019-05-02T15:07:44.032Z,19.67
2019-05-02T15:10:14.288Z,19.21
2019-05-02T15:12:44.572Z,18.99
2019-05-02T15:15:15.040Z,18.24
2019-05-02T15:17:45.323Z,18.02
2019-05-02T15:20:15.724Z,18.76
2019-05-02T15:22:46.265Z,18.76
2019-05-02T15:25:18.034Z,21.75
2019-05-02T15:27:49.896Z,25.14
2019-05-02T15:30:20.851Z,27.49
2019-05-02T15:33:12.388Z,26.18
2019-05-02T15:35:57.264Z,26.47
2019-05-02T15:38:28.241Z,26.83
2019-05-02T15:41:03.788Z,28.49
2019-05-02T15:43:31.791Z,28.77
2019-05-02T15:46:02.110Z,29.88
2019-05-02T15:48:32.464Z,31.87
2019-05-02T15:51:06.206Z,31.86
2019-05-02T15:54:05.904Z,30.49
2019-05-02T15:56:35.665Z,27.15
2019-05-02T15:59:06.381Z,24.43
2019-05-02T16:01:57.219Z,22.81
2019-05-02T16:04:33.122Z,21.90
2019-05-02T16:07:06.935Z,21.23
2019-05-02T16:09:35.273Z,20.79
2019-05-02T16:12:06.301Z,21.83
2019-05-02T16:14:36.906Z,22.73
2019-05-02T16:17:07.248Z,22.46
2019-05-02T16:19:42.724Z,23.45
2019-05-02T16:22:17.762Z,23.70
2019-05-02T16:24:50.923Z,23.89
2019-05-02T16:27:25.420Z,23.21
2019-05-02T16:29:58.330Z,21.37
2019-05-02T16:32:44.626Z,19.56
2019-05-02T16:35:17.487Z,18.87
2019-05-02T16:37:52.366Z,18.81
2019-05-02T16:40:22.080Z,18.56
2019-05-02T16:42:52.021Z,17.96
2019-05-02T16:45:22.822Z,17.97
2019-05-02T16:47:58.583Z,17.55
2019-05-02T16:50:27.555Z,17.12
2019-05-02T16:52:57.688Z,16.66
2019-05-02T16:55:28.313Z,16.27
2019-05-02T16:58:04.808Z,16.03
2019-05-02T17:00:32.050Z,13.82
2019-05-02T17:03:03.884Z,12.15
2019-05-02T17:05:34.574Z,11.58
2019-05-02T17:08:20.006Z,11.23
2019-05-02T17:11:14.191Z,10.97
2019-05-02T17:13:43.173Z,10.86
2019-05-02T17:16:17.317Z,10.76
2019-05-02T17:18:48.293Z,10.66
2019-05-02T17:21:19.740Z,10.65
2019-05-02T17:23:52.309Z,10.59
2019-05-02T17:26:22.797Z,10.62
2019-05-02T17:28:53.209Z,10.57
2019-05-02T17:31:23.490Z,10.72
2019-05-02T17:33:54.943Z,10.81
2019-05-02T17:36:28.547Z,10.84
2019-05-02T17:38:59.440Z,10.97
2019-05-02T17:41:29.299Z,11.06
2019-05-02T17:44:00.027Z,11.32
2019-05-02T17:46:30.369Z,11.50
2019-05-02T17:49:02.520Z,11.64
2019-05-02T17:51:51.992Z,12.46
2019-05-02T17:54:26.146Z,12.47
2019-05-02T17:56:57.415Z,12.12
2019-05-02T17:59:28.365Z,11.98
2019-05-02T18:01:58.745Z,11.94
2019-05-02T18:04:29.822Z,11.91
2019-05-02T18:07:00.153Z,11.88
2019-05-02T18:09:34.861Z,11.83
2019-05-02T18:12:07.239Z,11.82
2019-05-02T18:14:35.078Z,11.77
2019-05-02T18:17:05.708Z,11.76
2019-05-02T18:19:36.276Z,11.66
2019-05-02T18:22:14.890Z,11.60
2019-05-02T18:24:42.759Z,11.54
2019-05-02T18:27:12.901Z,11.49
2019-05-02T18:29:45.593Z,11.49
2019-05-02T18:32:17.549Z,11.51
2019-05-02T18:34:48.966Z,11.49
2019-05-02T18:37:19.617Z,11.48
2019-05-02T18:39:55.885Z,11.45
2019-05-02T18:42:25.628Z,11.50
2019-05-02T18:44:56.217Z,11.49
2019-05-02T18:47:27.464Z,11.51
2019-05-02T18:50:02.036Z,11.55
2019-05-02T18:52:36.396Z,11.56
2019-05-02T18:55:02.058Z,11.53
2019-05-02T18:57:33.337Z,11.55
2019-05-02T19:00:04.985Z,11.55
2019-05-02T19:02:36.488Z,11.55
2019-05-02T19:05:13.419Z,11.57
2019-05-02T19:07:39.480Z,11.63
2019-05-02T19:10:11.940Z,11.62
2019-05-02T19:12:42.480Z,11.62
2019-05-02T19:15:13.100Z,11.61
2019-05-02T19:17:43.823Z,11.57
2019-05-02T19:20:56.355Z,11.61
2019-05-02T19:23:24.173Z,11.65
2019-05-02T19:25:55.576Z,11.64
2019-05-02T19:28:34.692Z,11.63
2019-05-02T19:31:06.562Z,11.63
2019-05-02T19:33:37.528Z,11.54
2019-05-02T19:36:06.344Z,11.54
2019-05-02T19:38:36.610Z,11.44
2019-05-02T19:41:09.095Z,11.36
2019-05-02T19:43:40.351Z,11.30
2019-05-02T19:46:12.135Z,11.26
2019-05-02T19:48:43.054Z,11.24
2019-05-02T19:51:18.678Z,11.19
2019-05-02T19:53:46.417Z,11.16
2019-05-02T19:56:18.118Z,11.15
2019-05-02T19:58:48.874Z,11.14
2019-05-02T20:01:22.942Z,11.12
2019-05-02T20:03:52.023Z,11.16
2019-05-02T20:06:22.628Z,11.10
2019-05-02T20:08:58.889Z,11.07
2019-05-02T20:11:28.003Z,11.06
2019-05-02T20:14:00.666Z,11.01
2019-05-02T20:16:44.198Z,11.00
2019-05-02T20:19:12.528Z,10.95
2019-05-02T20:21:48.396Z,10.89
2019-05-02T20:24:19.581Z,10.93
2019-05-02T20:26:52.409Z,10.85
2019-05-02T20:29:21.895Z,10.86
2019-05-02T20:31:52.094Z,10.84
2019-05-02T20:34:22.418Z,10.80
2019-05-02T20:36:52.670Z,10.82
2019-05-02T20:39:23.024Z,10.84
2019-05-02T20:41:53.239Z,10.83
2019-05-02T20:44:23.548Z,10.85
2019-05-02T20:46:53.806Z,10.88
2019-05-02T20:49:24.637Z,10.90
2019-05-02T20:51:55.498Z,10.94
2019-05-02T20:54:25.997Z,10.89
2019-05-02T20:56:56.322Z,10.93
2019-05-02T20:59:26.956Z,10.93
2019-05-02T21:01:57.748Z,10.99
2019-05-02T21:04:28.019Z,11.01
2019-05-02T21:07:14.751Z,11.01
2019-05-02T21:10:19.840Z,11.02
2019-05-02T21:12:52.619Z,11.04
2019-05-02T21:15:24.092Z,11.01
2019-05-02T21:17:54.444Z,11.03
2019-05-02T21:20:25.010Z,10.97
2019-05-02T21:22:55.261Z,10.99
2019-05-02T21:25:25.826Z,10.99
2019-05-02T21:27:56.117Z,10.99
2019-05-02T21:30:27.663Z,10.98
2019-05-02T21:32:57.889Z,11.02
2019-05-02T21:35:28.749Z,11.00
2019-05-02T21:37:59.061Z,10.99
2019-05-02T21:40:29.328Z,10.95
2019-05-02T21:42:59.608Z,10.96
2019-05-02T21:45:31.658Z,10.96
2019-05-02T21:48:02.382Z,10.94
2019-05-02T21:50:42.743Z,10.88
2019-05-02T21:53:55.024Z,10.84
2019-05-02T21:56:21.937Z,10.80
2019-05-02T21:59:12.236Z,10.77
2019-05-02T22:01:51.890Z,10.77
2019-05-02T22:04:24.376Z,10.74
2019-05-02T22:06:54.604Z,10.74
2019-05-02T22:09:24.950Z,10.73
2019-05-02T22:11:55.152Z,10.71
2019-05-02T22:14:25.514Z,10.71
2019-05-02T22:16:55.742Z,10.64
2019-05-02T22:19:26.142Z,10.62
2019-05-02T22:21:56.398Z,10.60
2019-05-02T22:24:26.773Z,10.57
2019-05-02T22:26:58.494Z,10.55
2019-05-02T22:29:28.726Z,10.51
2019-05-02T22:31:59.001Z,10.48
2019-05-02T22:34:29.531Z,10.51
2019-05-02T22:37:01.863Z,10.55
2019-05-02T22:39:55.585Z,10.52
2019-05-02T22:42:27.444Z,10.51
2019-05-02T22:44:57.775Z,10.48
2019-05-02T22:47:28.031Z,10.40
2019-05-02T22:49:58.504Z,10.36
2019-05-02T22:52:29.088Z,10.35
2019-05-02T22:54:59.337Z,10.35
2019-05-02T22:57:31.809Z,10.36
2019-05-02T23:00:02.623Z,10.32
2019-05-02T23:02:34.706Z,10.32
2019-05-02T23:05:06.391Z,10.30
2019-05-02T23:07:37.046Z,10.27
2019-05-02T23:10:08.124Z,10.20
2019-05-02T23:12:38.394Z,10.22
2019-05-02T23:15:09.165Z,10.23
2019-05-02T23:17:39.532Z,10.21
2019-05-02T23:20:10.140Z,10.20
2019-05-02T23:22:41.827Z,10.13
2019-05-02T23:25:32.244Z,10.15
2019-05-02T23:28:07.053Z,10.13
2019-05-02T23:30:37.306Z,10.11
2019-05-02T23:33:07.562Z,10.08
2019-05-02T23:35:38.968Z,10.08
2019-05-02T23:38:09.377Z,10.06
2019-05-02T23:40:41.981Z,10.07
2019-05-02T23:43:12.516Z,10.01
2019-05-02T23:45:43.080Z,10.01
2019-05-02T23:48:13.345Z,10.01
2019-05-02T23:50:43.550Z,10.02
2019-05-02T23:53:13.786Z,9.99
2019-05-02T23:55:44.080Z,9.95
2019-05-02T23:58:14.385Z,9.92
